sensor_id;sensor_type;location;lat;lon;timestamp;pressure;altitude;pressure_sealevel;temperature;humidity
61906;BME280;47863;55.766;37.672;2023-06-10T00:02:08;100293.53;;;12.81;49.57
61906;BME280;47863;55.766;37.672;2023-06-10T00:04:34;100306.47;;;12.78;49.57
61906;BME280;47863;55.766;37.672;2023-06-10T00:07:05;100314.69;;;12.76;49.42
61906;BME280;47863;55.766;37.672;2023-06-10T00:09:36;100321.06;;;12.75;49.83
61906;BME280;47863;55.766;37.672;2023-06-10T00:12:05;100298.66;;;12.58;49.88
61906;BME280;47863;55.766;37.672;2023-06-10T00:14:39;100314.28;;;12.63;49.86
61906;BME280;47863;55.766;37.672;2023-06-10T00:17:06;100296.75;;;12.42;49.88
61906;BME280;47863;55.766;37.672;2023-06-10T00:19:38;100315.75;;;12.49;49.72
61906;BME280;47863;55.766;37.672;2023-06-10T00:22:07;100301.44;;;12.40;49.88
61906;BME280;47863;55.766;37.672;2023-06-10T00:24:35;100325.66;;;12.48;50.21
61906;BME280;47863;55.766;37.672;2023-06-10T00:27:00;100322.28;;;12.46;49.96
61906;BME280;47863;55.766;37.672;2023-06-10T00:29:26;100329.97;;;12.41;49.85
61906;BME280;47863;55.766;37.672;2023-06-10T00:31:52;100327.63;;;12.38;49.94
61906;BME280;47863;55.766;37.672;2023-06-10T00:34:23;100336.00;;;12.35;50.04
61906;BME280;47863;55.766;37.672;2023-06-10T00:36:48;100328.56;;;12.29;49.97
61906;BME280;47863;55.766;37.672;2023-06-10T00:39:14;100331.56;;;12.26;50.14
61906;BME280;47863;55.766;37.672;2023-06-10T00:41:40;100333.25;;;12.27;50.05
61906;BME280;47863;55.766;37.672;2023-06-10T00:44:06;100343.47;;;12.23;50.28
61906;BME280;47863;55.766;37.672;2023-06-10T00:46:31;100350.84;;;12.21;50.42
61906;BME280;47863;55.766;37.672;2023-06-10T00:48:59;100328.59;;;12.03;50.46
61906;BME280;47863;55.766;37.672;2023-06-10T00:51:25;100354.84;;;12.17;50.34
61906;BME280;47863;55.766;37.672;2023-06-10T00:53:52;100350.47;;;12.16;50.22
61906;BME280;47863;55.766;37.672;2023-06-10T00:56:18;100356.91;;;12.23;50.24
61906;BME280;47863;55.766;37.672;2023-06-10T00:58:44;100366.47;;;12.26;50.34
61906;BME280;47863;55.766;37.672;2023-06-10T01:01:10;100322.19;;;12.04;50.11
61906;BME280;47863;55.766;37.672;2023-06-10T01:03:39;100345.78;;;12.18;50.07
61906;BME280;47863;55.766;37.672;2023-06-10T01:08:41;100371.22;;;12.32;50.20
61906;BME280;47863;55.766;37.672;2023-06-10T01:11:18;100349.00;;;12.22;50.25
61906;BME280;47863;55.766;37.672;2023-06-10T01:13:49;100369.41;;;12.33;50.15
61906;BME280;47863;55.766;37.672;2023-06-10T01:16:17;100384.72;;;12.40;49.99
61906;BME280;47863;55.766;37.672;2023-06-10T01:18:43;100380.88;;;12.43;50.27
61906;BME280;47863;55.766;37.672;2023-06-10T01:21:18;100394.84;;;12.46;50.30
61906;BME280;47863;55.766;37.672;2023-06-10T01:23:43;100377.34;;;12.42;50.07
61906;BME280;47863;55.766;37.672;2023-06-10T01:26:10;100383.03;;;12.39;49.91
61906;BME280;47863;55.766;37.672;2023-06-10T01:28:44;100403.25;;;12.52;50.49
61906;BME280;47863;55.766;37.672;2023-06-10T01:31:30;100393.13;;;12.45;50.15
61906;BME280;47863;55.766;37.672;2023-06-10T01:34:00;100399.03;;;12.49;50.20
61906;BME280;47863;55.766;37.672;2023-06-10T01:36:28;100404.56;;;12.47;50.54
61906;BME280;47863;55.766;37.672;2023-06-10T01:38:55;100393.66;;;12.49;50.60
61906;BME280;47863;55.766;37.672;2023-06-10T01:41:21;100402.25;;;12.53;50.52
61906;BME280;47863;55.766;37.672;2023-06-10T01:43:48;100399.09;;;12.57;50.57
61906;BME280;47863;55.766;37.672;2023-06-10T01:46:15;100410.56;;;12.67;50.48
61906;BME280;47863;55.766;37.672;2023-06-10T01:48:41;100406.34;;;12.65;50.50
61906;BME280;47863;55.766;37.672;2023-06-10T01:51:07;100378.38;;;12.49;50.59
61906;BME280;47863;55.766;37.672;2023-06-10T01:53:33;100418.69;;;12.76;50.66
61906;BME280;47863;55.766;37.672;2023-06-10T01:55:58;100419.38;;;12.78;50.72
61906;BME280;47863;55.766;37.672;2023-06-10T01:58:24;100418.06;;;12.82;50.55
61906;BME280;47863;55.766;37.672;2023-06-10T02:00:50;100420.06;;;12.80;50.59
61906;BME280;47863;55.766;37.672;2023-06-10T02:03:15;100391.25;;;12.64;50.33
61906;BME280;47863;55.766;37.672;2023-06-10T02:05:41;100430.81;;;12.80;50.59
61906;BME280;47863;55.766;37.672;2023-06-10T02:08:07;100429.59;;;12.74;50.96
61906;BME280;47863;55.766;37.672;2023-06-10T02:10:32;100418.28;;;12.62;51.16
61906;BME280;47863;55.766;37.672;2023-06-10T02:12:58;100432.53;;;12.63;51.42
61906;BME280;47863;55.766;37.672;2023-06-10T02:15:24;100406.38;;;12.39;51.25
61906;BME280;47863;55.766;37.672;2023-06-10T02:17:50;100434.28;;;12.46;51.41
61906;BME280;47863;55.766;37.672;2023-06-10T02:20:15;100441.97;;;12.41;51.64
61906;BME280;47863;55.766;37.672;2023-06-10T02:22:41;100440.91;;;12.34;51.57
61906;BME280;47863;55.766;37.672;2023-06-10T02:25:07;100443.06;;;12.30;51.78
61906;BME280;47863;55.766;37.672;2023-06-10T02:27:34;100448.44;;;12.30;51.72
61906;BME280;47863;55.766;37.672;2023-06-10T02:30:00;100449.31;;;12.30;51.54
61906;BME280;47863;55.766;37.672;2023-06-10T02:32:26;100443.06;;;12.30;51.86
61906;BME280;47863;55.766;37.672;2023-06-10T02:34:52;100445.25;;;12.26;51.76
61906;BME280;47863;55.766;37.672;2023-06-10T02:37:18;100437.97;;;12.19;51.81
61906;BME280;47863;55.766;37.672;2023-06-10T02:39:43;100430.28;;;12.06;52.03
61906;BME280;47863;55.766;37.672;2023-06-10T02:42:09;100435.50;;;12.07;51.98
61906;BME280;47863;55.766;37.672;2023-06-10T02:44:35;100458.75;;;12.17;52.10
61906;BME280;47863;55.766;37.672;2023-06-10T02:47:01;100453.84;;;12.12;52.18
61906;BME280;47863;55.766;37.672;2023-06-10T02:49:27;100455.75;;;12.02;52.23
61906;BME280;47863;55.766;37.672;2023-06-10T02:51:55;100457.91;;;11.98;52.21
61906;BME280;47863;55.766;37.672;2023-06-10T02:54:25;100453.91;;;12.02;52.51
61906;BME280;47863;55.766;37.672;2023-06-10T02:56:51;100462.44;;;11.98;52.45
61906;BME280;47863;55.766;37.672;2023-06-10T02:59:18;100458.38;;;11.94;52.44
61906;BME280;47863;55.766;37.672;2023-06-10T03:01:44;100460.38;;;11.92;52.46
61906;BME280;47863;55.766;37.672;2023-06-10T03:04:09;100460.13;;;11.85;52.67
61906;BME280;47863;55.766;37.672;2023-06-10T03:06:38;100468.00;;;11.86;52.62
61906;BME280;47863;55.766;37.672;2023-06-10T03:09:03;100466.91;;;11.89;52.51
61906;BME280;47863;55.766;37.672;2023-06-10T03:11:29;100436.72;;;11.77;52.33
61906;BME280;47863;55.766;37.672;2023-06-10T03:13:56;100471.03;;;12.01;52.39
61906;BME280;47863;55.766;37.672;2023-06-10T03:16:22;100449.84;;;11.98;52.39
61906;BME280;47863;55.766;37.672;2023-06-10T03:18:48;100441.66;;;12.00;52.53
61906;BME280;47863;55.766;37.672;2023-06-10T03:21:14;100470.81;;;12.13;52.31
61906;BME280;47863;55.766;37.672;2023-06-10T03:23:40;100471.78;;;12.12;52.38
61906;BME280;47863;55.766;37.672;2023-06-10T03:26:05;100472.19;;;12.17;52.35
61906;BME280;47863;55.766;37.672;2023-06-10T03:28:31;100470.81;;;12.13;52.25
61906;BME280;47863;55.766;37.672;2023-06-10T03:30:57;100473.03;;;12.17;52.35
61906;BME280;47863;55.766;37.672;2023-06-10T03:33:23;100474.00;;;12.16;52.50
61906;BME280;47863;55.766;37.672;2023-06-10T03:35:48;100481.22;;;12.16;52.56
61906;BME280;47863;55.766;37.672;2023-06-10T03:38:14;100430.69;;;11.93;52.15
61906;BME280;47863;55.766;37.672;2023-06-10T03:40:40;100450.09;;;12.05;52.33
61906;BME280;47863;55.766;37.672;2023-06-10T03:43:05;100447.78;;;12.10;52.21
61906;BME280;47863;55.766;37.672;2023-06-10T03:45:31;100478.06;;;12.38;52.24
61906;BME280;47863;55.766;37.672;2023-06-10T03:47:57;100487.22;;;12.54;51.96
61906;BME280;47863;55.766;37.672;2023-06-10T03:50:23;100481.22;;;12.60;52.12
61906;BME280;47863;55.766;37.672;2023-06-10T03:52:50;100480.94;;;12.63;52.14
61906;BME280;47863;55.766;37.672;2023-06-10T03:55:16;100470.03;;;12.64;51.96
61906;BME280;47863;55.766;37.672;2023-06-10T03:57:43;100478.50;;;12.78;52.03
61906;BME280;47863;55.766;37.672;2023-06-10T04:00:09;100476.56;;;12.88;51.99
61906;BME280;47863;55.766;37.672;2023-06-10T04:02:38;100478.78;;;13.01;51.93
61906;BME280;47863;55.766;37.672;2023-06-10T04:05:15;100485.75;;;13.12;51.97
61906;BME280;47863;55.766;37.672;2023-06-10T04:07:42;100482.94;;;13.21;51.60
61906;BME280;47863;55.766;37.672;2023-06-10T04:10:10;100487.69;;;13.27;51.31
61906;BME280;47863;55.766;37.672;2023-06-10T04:12:37;100498.81;;;13.33;51.51
61906;BME280;47863;55.766;37.672;2023-06-10T04:15:04;100486.22;;;13.33;51.53
61906;BME280;47863;55.766;37.672;2023-06-10T04:17:31;100487.41;;;13.39;51.36
61906;BME280;47863;55.766;37.672;2023-06-10T04:19:57;100450.47;;;13.23;51.25
61906;BME280;47863;55.766;37.672;2023-06-10T04:22:23;100492.03;;;13.55;51.16
61906;BME280;47863;55.766;37.672;2023-06-10T04:24:49;100460.84;;;13.44;51.00
61906;BME280;47863;55.766;37.672;2023-06-10T04:27:15;100494.72;;;13.63;50.92
61906;BME280;47863;55.766;37.672;2023-06-10T04:29:41;100498.63;;;13.68;51.02
61906;BME280;47863;55.766;37.672;2023-06-10T04:32:07;100495.94;;;13.77;50.94
61906;BME280;47863;55.766;37.672;2023-06-10T04:34:33;100497.63;;;13.86;50.82
61906;BME280;47863;55.766;37.672;2023-06-10T04:36:59;100474.94;;;13.80;50.75
61906;BME280;47863;55.766;37.672;2023-06-10T04:39:25;100480.31;;;13.88;50.35
61906;BME280;47863;55.766;37.672;2023-06-10T04:41:51;100494.63;;;13.97;50.28
61906;BME280;47863;55.766;37.672;2023-06-10T04:44:17;100503.06;;;14.02;50.43
61906;BME280;47863;55.766;37.672;2023-06-10T04:46:42;100498.00;;;14.07;50.43
61906;BME280;47863;55.766;37.672;2023-06-10T04:49:08;100508.97;;;14.14;50.32
61906;BME280;47863;55.766;37.672;2023-06-10T04:51:33;100502.75;;;14.22;50.38
61906;BME280;47863;55.766;37.672;2023-06-10T04:53:59;100505.28;;;14.32;49.72
61906;BME280;47863;55.766;37.672;2023-06-10T04:56:29;100515.19;;;14.39;49.87
61906;BME280;47863;55.766;37.672;2023-06-10T04:58:59;100515.38;;;14.46;49.96
61906;BME280;47863;55.766;37.672;2023-06-10T05:01:25;100519.25;;;14.52;49.62
61906;BME280;47863;55.766;37.672;2023-06-10T05:03:51;100509.66;;;14.57;49.72
61906;BME280;47863;55.766;37.672;2023-06-10T05:06:16;100513.53;;;14.63;49.57
61906;BME280;47863;55.766;37.672;2023-06-10T05:08:42;100510.53;;;14.66;49.66
61906;BME280;47863;55.766;37.672;2023-06-10T05:11:08;100506.13;;;14.73;49.24
61906;BME280;47863;55.766;37.672;2023-06-10T05:13:34;100495.84;;;14.85;48.99
61906;BME280;47863;55.766;37.672;2023-06-10T05:15:59;100523.41;;;15.12;48.95
61906;BME280;47863;55.766;37.672;2023-06-10T05:18:25;100523.34;;;15.28;48.84
61906;BME280;47863;55.766;37.672;2023-06-10T05:20:51;100524.00;;;15.38;48.70
61906;BME280;47863;55.766;37.672;2023-06-10T05:23:17;100538.31;;;15.47;48.47
61906;BME280;47863;55.766;37.672;2023-06-10T05:25:42;100509.16;;;15.42;48.12
61906;BME280;47863;55.766;37.672;2023-06-10T05:28:08;100524.38;;;15.66;48.03
61906;BME280;47863;55.766;37.672;2023-06-10T05:30:37;100519.75;;;15.92;47.69
61906;BME280;47863;55.766;37.672;2023-06-10T05:33:03;100512.72;;;16.05;47.85
61906;BME280;47863;55.766;37.672;2023-06-10T05:35:29;100527.66;;;16.16;47.50
61906;BME280;47863;55.766;37.672;2023-06-10T05:37:55;100531.88;;;16.19;47.61
61906;BME280;47863;55.766;37.672;2023-06-10T05:40:21;100525.94;;;16.23;47.56
61906;BME280;47863;55.766;37.672;2023-06-10T05:42:46;100544.19;;;16.44;47.29
61906;BME280;47863;55.766;37.672;2023-06-10T05:45:12;100535.34;;;16.51;47.41
61906;BME280;47863;55.766;37.672;2023-06-10T05:47:38;100543.69;;;16.64;47.16
61906;BME280;47863;55.766;37.672;2023-06-10T05:50:04;100544.66;;;16.71;47.14
61906;BME280;47863;55.766;37.672;2023-06-10T05:52:36;100521.53;;;16.69;46.67
61906;BME280;47863;55.766;37.672;2023-06-10T05:55:05;100529.97;;;16.89;46.78
61906;BME280;47863;55.766;37.672;2023-06-10T05:57:30;100542.94;;;16.93;46.61
61906;BME280;47863;55.766;37.672;2023-06-10T05:59:56;100548.00;;;16.96;46.71
61906;BME280;47863;55.766;37.672;2023-06-10T06:02:22;100541.47;;;17.05;46.42
61906;BME280;47863;55.766;37.672;2023-06-10T06:04:48;100540.75;;;17.27;46.31
61906;BME280;47863;55.766;37.672;2023-06-10T06:07:13;100547.72;;;17.51;45.84
61906;BME280;47863;55.766;37.672;2023-06-10T06:09:39;100547.44;;;17.60;45.62
61906;BME280;47863;55.766;37.672;2023-06-10T06:12:05;100548.06;;;17.77;45.59
61906;BME280;47863;55.766;37.672;2023-06-10T06:14:33;100548.81;;;18.01;45.35
61906;BME280;47863;55.766;37.672;2023-06-10T06:17:02;100537.13;;;18.22;44.85
61906;BME280;47863;55.766;37.672;2023-06-10T06:19:28;100529.25;;;18.49;44.54
61906;BME280;47863;55.766;37.672;2023-06-10T06:21:53;100533.31;;;18.81;44.30
61906;BME280;47863;55.766;37.672;2023-06-10T06:24:20;100543.97;;;19.11;44.02
61906;BME280;47863;55.766;37.672;2023-06-10T06:26:45;100547.13;;;19.14;44.16
61906;BME280;47863;55.766;37.672;2023-06-10T06:29:11;100549.88;;;19.21;43.95
61906;BME280;47863;55.766;37.672;2023-06-10T06:31:36;100525.31;;;19.36;43.29
61906;BME280;47863;55.766;37.672;2023-06-10T06:34:02;100548.97;;;19.84;42.96
61906;BME280;47863;55.766;37.672;2023-06-10T06:36:27;100529.19;;;20.16;42.44
61906;BME280;47863;55.766;37.672;2023-06-10T06:38:53;100543.31;;;20.60;41.94
61906;BME280;47863;55.766;37.672;2023-06-10T06:41:19;100527.16;;;20.65;41.85
61906;BME280;47863;55.766;37.672;2023-06-10T06:43:44;100550.84;;;20.78;42.24
61906;BME280;47863;55.766;37.672;2023-06-10T06:46:10;100568.44;;;20.82;42.15
61906;BME280;47863;55.766;37.672;2023-06-10T06:48:36;100555.88;;;20.88;41.88
61906;BME280;47863;55.766;37.672;2023-06-10T06:51:01;100573.22;;;20.73;42.05
61906;BME280;47863;55.766;37.672;2023-06-10T06:53:28;100574.84;;;20.41;42.29
61906;BME280;47863;55.766;37.672;2023-06-10T06:55:53;100577.69;;;20.06;42.65
61906;BME280;47863;55.766;37.672;2023-06-10T06:58:19;100549.06;;;19.62;42.87
61906;BME280;47863;55.766;37.672;2023-06-10T07:00:44;100565.38;;;19.69;42.41
61906;BME280;47863;55.766;37.672;2023-06-10T07:03:10;100571.09;;;19.80;42.16
61906;BME280;47863;55.766;37.672;2023-06-10T07:05:37;100578.09;;;19.96;41.79
61906;BME280;47863;55.766;37.672;2023-06-10T07:08:02;100500.03;;;19.90;41.26
61906;BME280;47863;55.766;37.672;2023-06-10T07:10:28;100566.75;;;21.08;39.98
61906;BME280;47863;55.766;37.672;2023-06-10T07:12:54;100563.78;;;21.94;39.00
61906;BME280;47863;55.766;37.672;2023-06-10T07:15:20;100572.47;;;23.12;37.46
61906;BME280;47863;55.766;37.672;2023-06-10T07:17:45;100561.78;;;24.33;36.43
61906;BME280;47863;55.766;37.672;2023-06-10T07:20:11;100587.59;;;24.56;36.49
61906;BME280;47863;55.766;37.672;2023-06-10T07:22:37;100578.34;;;24.08;37.32
61906;BME280;47863;55.766;37.672;2023-06-10T07:25:05;100575.28;;;25.12;35.66
61906;BME280;47863;55.766;37.672;2023-06-10T07:27:31;100573.69;;;26.61;34.87
61906;BME280;47863;55.766;37.672;2023-06-10T07:29:56;100576.69;;;26.60;34.69
61906;BME280;47863;55.766;37.672;2023-06-10T07:32:22;100585.25;;;26.18;34.64
61906;BME280;47863;55.766;37.672;2023-06-10T07:34:50;100582.94;;;27.40;32.88
61906;BME280;47863;55.766;37.672;2023-06-10T07:37:16;100589.56;;;27.61;32.93
61906;BME280;47863;55.766;37.672;2023-06-10T07:39:41;100594.94;;;29.03;31.14
61906;BME280;47863;55.766;37.672;2023-06-10T07:42:09;100600.69;;;31.07;29.30
61906;BME280;47863;55.766;37.672;2023-06-10T07:44:35;100596.53;;;32.50;28.02
61906;BME280;47863;55.766;37.672;2023-06-10T07:47:01;100595.25;;;31.77;28.80
61906;BME280;47863;55.766;37.672;2023-06-10T07:49:26;100616.25;;;30.09;30.19
61906;BME280;47863;55.766;37.672;2023-06-10T07:51:54;100589.38;;;29.31;29.69
61906;BME280;47863;55.766;37.672;2023-06-10T07:54:20;100612.25;;;31.24;27.65
61906;BME280;47863;55.766;37.672;2023-06-10T07:56:45;100603.09;;;32.98;26.22
61906;BME280;47863;55.766;37.672;2023-06-10T07:59:11;100600.75;;;32.82;26.09
61906;BME280;47863;55.766;37.672;2023-06-10T08:01:37;100612.53;;;31.48;27.28
61906;BME280;47863;55.766;37.672;2023-06-10T08:04:04;100613.09;;;30.78;27.04
61906;BME280;47863;55.766;37.672;2023-06-10T08:06:30;100614.06;;;32.40;25.46
61906;BME280;47863;55.766;37.672;2023-06-10T08:08:56;100622.50;;;34.48;23.87
61906;BME280;47863;55.766;37.672;2023-06-10T08:11:21;100618.59;;;36.17;21.66
61906;BME280;47863;55.766;37.672;2023-06-10T08:13:47;100620.00;;;37.73;20.12
61906;BME280;47863;55.766;37.672;2023-06-10T08:16:13;100624.22;;;38.97;19.71
61906;BME280;47863;55.766;37.672;2023-06-10T08:18:39;100610.72;;;40.15;18.61
61906;BME280;47863;55.766;37.672;2023-06-10T08:21:04;100624.59;;;41.53;17.83
61906;BME280;47863;55.766;37.672;2023-06-10T08:23:30;100633.34;;;42.66;16.36
61906;BME280;47863;55.766;37.672;2023-06-10T08:25:56;100622.78;;;43.35;15.38
61906;BME280;47863;55.766;37.672;2023-06-10T08:28:21;100641.28;;;44.16;15.57
61906;BME280;47863;55.766;37.672;2023-06-10T08:30:47;100625.72;;;44.26;15.39
61906;BME280;47863;55.766;37.672;2023-06-10T08:33:13;100632.28;;;43.94;14.96
61906;BME280;47863;55.766;37.672;2023-06-10T08:35:38;100628.94;;;44.24;14.27
61906;BME280;47863;55.766;37.672;2023-06-10T08:38:04;100627.09;;;44.90;13.92
61906;BME280;47863;55.766;37.672;2023-06-10T08:40:30;100637.22;;;45.14;13.69
61906;BME280;47863;55.766;37.672;2023-06-10T08:43:10;100637.00;;;45.46;12.94
61906;BME280;47863;55.766;37.672;2023-06-10T08:45:41;100643.72;;;45.15;13.25
61906;BME280;47863;55.766;37.672;2023-06-10T08:48:10;100650.09;;;42.75;14.03
61906;BME280;47863;55.766;37.672;2023-06-10T08:50:36;100651.94;;;40.44;15.07
61906;BME280;47863;55.766;37.672;2023-06-10T08:53:06;100652.44;;;39.01;14.70
61906;BME280;47863;55.766;37.672;2023-06-10T08:55:36;100637.69;;;39.21;14.63
61906;BME280;47863;55.766;37.672;2023-06-10T08:58:02;100633.38;;;40.31;13.57
61906;BME280;47863;55.766;37.672;2023-06-10T09:00:29;100638.06;;;41.02;13.63
61906;BME280;47863;55.766;37.672;2023-06-10T09:02:56;100641.78;;;39.33;13.93
61906;BME280;47863;55.766;37.672;2023-06-10T09:05:22;100646.44;;;36.81;15.39
61906;BME280;47863;55.766;37.672;2023-06-10T09:07:48;100650.94;;;35.77;15.72
61906;BME280;47863;55.766;37.672;2023-06-10T09:10:14;100615.66;;;36.72;14.65
61906;BME280;47863;55.766;37.672;2023-06-10T09:12:40;100654.56;;;38.60;13.68
61906;BME280;47863;55.766;37.672;2023-06-10T09:15:07;100639.47;;;39.43;12.74
61906;BME280;47863;55.766;37.672;2023-06-10T09:17:32;100649.03;;;40.11;12.47
61906;BME280;47863;55.766;37.672;2023-06-10T09:20:00;100645.34;;;41.15;12.20
61906;BME280;47863;55.766;37.672;2023-06-10T09:22:32;100650.56;;;42.49;11.55
61906;BME280;47863;55.766;37.672;2023-06-10T09:25:06;100659.78;;;43.34;10.87
61906;BME280;47863;55.766;37.672;2023-06-10T09:27:51;100645.25;;;41.70;10.48
61906;BME280;47863;55.766;37.672;2023-06-10T09:30:32;100656.63;;;41.73;11.36
61906;BME280;47863;55.766;37.672;2023-06-10T09:33:10;100654.88;;;42.87;11.28
61906;BME280;47863;55.766;37.672;2023-06-10T09:35:36;100661.25;;;43.91;10.98
61906;BME280;47863;55.766;37.672;2023-06-10T09:38:01;100662.84;;;44.44;10.55
61906;BME280;47863;55.766;37.672;2023-06-10T09:40:30;100668.53;;;43.61;10.45
61906;BME280;47863;55.766;37.672;2023-06-10T09:42:58;100668.50;;;43.29;10.35
61906;BME280;47863;55.766;37.672;2023-06-10T09:45:31;100674.69;;;41.39;11.27
61906;BME280;47863;55.766;37.672;2023-06-10T09:47:58;100670.84;;;38.84;12.25
61906;BME280;47863;55.766;37.672;2023-06-10T09:50:24;100667.75;;;36.63;13.70
61906;BME280;47863;55.766;37.672;2023-06-10T09:52:50;100658.66;;;34.86;13.75
61906;BME280;47863;55.766;37.672;2023-06-10T09:55:16;100676.34;;;33.61;14.48
61906;BME280;47863;55.766;37.672;2023-06-10T09:57:43;100678.78;;;33.97;14.04
61906;BME280;47863;55.766;37.672;2023-06-10T10:00:13;100671.69;;;35.24;13.17
61906;BME280;47863;55.766;37.672;2023-06-10T10:02:47;100665.78;;;36.00;12.47
61906;BME280;47863;55.766;37.672;2023-06-10T10:05:15;100657.66;;;36.90;12.21
61906;BME280;47863;55.766;37.672;2023-06-10T10:07:41;100664.03;;;36.90;12.62
61906;BME280;47863;55.766;37.672;2023-06-10T10:10:07;100651.28;;;37.52;11.96
61906;BME280;47863;55.766;37.672;2023-06-10T10:12:35;100653.75;;;38.77;11.80
61906;BME280;47863;55.766;37.672;2023-06-10T10:15:02;100673.28;;;39.77;11.29
61906;BME280;47863;55.766;37.672;2023-06-10T10:17:32;100678.41;;;38.40;11.94
61906;BME280;47863;55.766;37.672;2023-06-10T10:20:04;100658.03;;;36.10;13.04
61906;BME280;47863;55.766;37.672;2023-06-10T10:22:37;100670.44;;;33.97;13.85
61906;BME280;47863;55.766;37.672;2023-06-10T10:25:07;100677.41;;;32.12;15.05
61906;BME280;47863;55.766;37.672;2023-06-10T10:27:40;100670.31;;;30.62;15.66
61906;BME280;47863;55.766;37.672;2023-06-10T10:30:11;100567.63;;;29.02;16.17
61906;BME280;47863;55.766;37.672;2023-06-10T10:32:58;100662.13;;;28.92;16.33
61906;BME280;47863;55.766;37.672;2023-06-10T10:35:25;100657.19;;;28.94;16.33
61906;BME280;47863;55.766;37.672;2023-06-10T10:37:54;100659.81;;;30.70;15.11
61906;BME280;47863;55.766;37.672;2023-06-10T10:40:21;100630.25;;;32.72;13.88
61906;BME280;47863;55.766;37.672;2023-06-10T10:42:49;100637.31;;;34.82;13.11
61906;BME280;47863;55.766;37.672;2023-06-10T10:45:15;100658.16;;;36.19;12.33
61906;BME280;47863;55.766;37.672;2023-06-10T10:47:43;100662.66;;;35.46;12.97
61906;BME280;47863;55.766;37.672;2023-06-10T10:50:17;100660.81;;;33.89;13.57
61906;BME280;47863;55.766;37.672;2023-06-10T10:53:01;100670.34;;;32.40;14.44
61906;BME280;47863;55.766;37.672;2023-06-10T10:55:28;100663.94;;;31.80;14.96
61906;BME280;47863;55.766;37.672;2023-06-10T10:58:07;100650.66;;;33.21;14.05
61906;BME280;47863;55.766;37.672;2023-06-10T11:00:37;100674.66;;;34.94;13.01
61906;BME280;47863;55.766;37.672;2023-06-10T11:05:46;100669.81;;;36.07;12.68
61906;BME280;47863;55.766;37.672;2023-06-10T11:11:27;100667.91;;;35.14;13.14
61906;BME280;47863;55.766;37.672;2023-06-10T11:16:40;100660.22;;;35.86;12.77
61906;BME280;47863;55.766;37.672;2023-06-10T11:19:07;100665.13;;;36.44;12.55
61906;BME280;47863;55.766;37.672;2023-06-10T11:21:45;100664.50;;;37.29;11.59
61906;BME280;47863;55.766;37.672;2023-06-10T11:24:22;100658.13;;;38.17;11.62
61906;BME280;47863;55.766;37.672;2023-06-10T11:26:48;100653.06;;;38.45;11.34
61906;BME280;47863;55.766;37.672;2023-06-10T11:29:14;100626.41;;;37.10;11.88
61906;BME280;47863;55.766;37.672;2023-06-10T11:31:45;100640.59;;;35.63;12.86
61906;BME280;47863;55.766;37.672;2023-06-10T11:34:13;100676.13;;;33.57;13.38
61906;BME280;47863;55.766;37.672;2023-06-10T11:36:41;100672.03;;;31.51;14.45
61906;BME280;47863;55.766;37.672;2023-06-10T11:39:09;100673.28;;;29.77;15.39
61906;BME280;47863;55.766;37.672;2023-06-10T11:41:36;100671.56;;;28.47;15.51
61906;BME280;47863;55.766;37.672;2023-06-10T11:44:07;100671.53;;;27.98;15.72
61906;BME280;47863;55.766;37.672;2023-06-10T11:46:34;100669.47;;;27.32;15.80
61906;BME280;47863;55.766;37.672;2023-06-10T11:49:00;100659.00;;;26.55;16.34
61906;BME280;47863;55.766;37.672;2023-06-10T11:51:31;100681.28;;;26.01;16.48
61906;BME280;47863;55.766;37.672;2023-06-10T11:53:57;100669.84;;;25.45;16.70
61906;BME280;47863;55.766;37.672;2023-06-10T11:56:27;100669.94;;;25.26;16.66
61906;BME280;47863;55.766;37.672;2023-06-10T11:58:58;100671.25;;;25.71;16.63
61906;BME280;47863;55.766;37.672;2023-06-10T12:01:26;100664.94;;;26.35;15.74
61906;BME280;47863;55.766;37.672;2023-06-10T12:04:05;100674.53;;;27.06;15.64
61906;BME280;47863;55.766;37.672;2023-06-10T12:06:57;100649.38;;;28.54;15.01
61906;BME280;47863;55.766;37.672;2023-06-10T12:09:29;100644.09;;;28.79;14.83
61906;BME280;47863;55.766;37.672;2023-06-10T12:12:01;100631.81;;;28.16;15.10
61906;BME280;47863;55.766;37.672;2023-06-10T12:14:58;100660.19;;;27.94;15.31
61906;BME280;47863;55.766;37.672;2023-06-10T12:19:57;100632.94;;;27.76;15.44
61906;BME280;47863;55.766;37.672;2023-06-10T12:22:24;100665.13;;;27.19;15.83
61906;BME280;47863;55.766;37.672;2023-06-10T12:25:04;100657.50;;;26.06;16.62
61906;BME280;47863;55.766;37.672;2023-06-10T12:27:33;100661.44;;;25.04;17.34
61906;BME280;47863;55.766;37.672;2023-06-10T12:30:01;100671.53;;;24.31;18.03
61906;BME280;47863;55.766;37.672;2023-06-10T12:32:42;100674.47;;;23.74;18.51
61906;BME280;47863;55.766;37.672;2023-06-10T12:35:17;100669.00;;;23.31;18.58
61906;BME280;47863;55.766;37.672;2023-06-10T12:38:01;100665.97;;;22.82;18.72
61906;BME280;47863;55.766;37.672;2023-06-10T12:40:33;100630.41;;;22.25;19.30
61906;BME280;47863;55.766;37.672;2023-06-10T12:43:00;100668.41;;;22.27;19.40
61906;BME280;47863;55.766;37.672;2023-06-10T12:45:31;100673.47;;;22.10;19.42
61906;BME280;47863;55.766;37.672;2023-06-10T12:48:11;100662.19;;;21.93;19.31
61906;BME280;47863;55.766;37.672;2023-06-10T12:50:39;100651.13;;;21.68;19.22
61906;BME280;47863;55.766;37.672;2023-06-10T12:53:05;100672.09;;;21.74;19.54
61906;BME280;47863;55.766;37.672;2023-06-10T12:55:32;100667.69;;;21.79;19.35
61906;BME280;47863;55.766;37.672;2023-06-10T12:57:58;100642.53;;;21.77;19.64